createdAt,value
2023-09-06T00:11:13.842Z,0
2023-09-06T00:26:37.137Z,0
2023-09-06T00:42:00.430Z,0
2023-09-06T00:57:23.725Z,0
2023-09-06T01:12:47.020Z,0
2023-09-06T01:28:10.320Z,0
2023-09-06T01:43:33.616Z,0
2023-09-06T01:58:56.911Z,0
2023-09-06T02:14:19.222Z,0
2023-09-06T02:29:42.517Z,0
2023-09-06T02:45:05.813Z,0
2023-09-06T03:00:29.109Z,0
2023-09-06T03:15:52.404Z,0
2023-09-06T03:31:15.700Z,0
2023-09-06T03:46:38.996Z,0
2023-09-06T04:02:02.248Z,1
2023-09-06T04:17:25.501Z,15
2023-09-06T04:32:48.754Z,103
2023-09-06T04:48:12.007Z,274
2023-09-06T05:03:35.260Z,504
2023-09-06T05:18:58.513Z,687
2023-09-06T05:34:20.782Z,843
2023-09-06T05:49:44.037Z,983
2023-09-06T06:05:07.289Z,1108
2023-09-06T06:20:30.543Z,1225
2023-09-06T06:35:53.793Z,1340
2023-09-06T06:51:17.045Z,1448
2023-09-06T07:06:40.298Z,1549
2023-09-06T07:22:03.549Z,1660
2023-09-06T07:37:26.801Z,1802
2023-09-06T07:52:50.050Z,1871
2023-09-06T08:08:13.302Z,1903
2023-09-06T08:23:36.553Z,1919
2023-09-06T08:38:59.802Z,1967
2023-09-06T08:54:22.072Z,2054
2023-09-06T09:09:45.326Z,2197
2023-09-06T09:25:08.581Z,2325
2023-09-06T09:40:31.835Z,2635
2023-09-06T09:55:55.089Z,3159
2023-09-06T10:11:18.349Z,3768
2023-09-06T10:26:41.609Z,4654
2023-09-06T10:42:04.869Z,13083
2023-09-06T10:43:28.275Z,3072
2023-09-06T10:44:51.684Z,7997
2023-09-06T10:46:15.094Z,9980
2023-09-06T10:47:38.503Z,18282
2023-09-06T10:49:01.913Z,25001
2023-09-06T10:50:24.336Z,21570
2023-09-06T10:51:47.746Z,21129
2023-09-06T10:53:11.156Z,18557
2023-09-06T10:54:34.565Z,15130
2023-09-06T10:55:57.974Z,17755
2023-09-06T10:57:21.384Z,14874
2023-09-06T10:58:44.793Z,14297
2023-09-06T11:00:08.203Z,3072
2023-09-06T11:01:31.618Z,13697
2023-09-06T11:02:55.028Z,17830
2023-09-06T11:04:18.438Z,17085
2023-09-06T11:05:41.848Z,14762
2023-09-06T11:07:05.257Z,24596
2023-09-06T11:08:27.683Z,32331
2023-09-06T11:09:51.091Z,30923
2023-09-06T11:11:14.500Z,25508
2023-09-06T11:12:37.910Z,21719
2023-09-06T11:14:01.319Z,17670
2023-09-06T11:15:24.724Z,10171
2023-09-06T11:16:47.155Z,10691
2023-09-06T11:18:10.570Z,3072
2023-09-06T11:19:33.977Z,19015
2023-09-06T11:20:57.386Z,28132
2023-09-06T11:22:20.795Z,35583
2023-09-06T11:23:44.202Z,3072
2023-09-06T11:25:07.611Z,31383
2023-09-06T11:26:31.018Z,24131
2023-09-06T11:27:54.424Z,15724
2023-09-06T11:29:17.829Z,30352
2023-09-06T11:30:41.239Z,3072
2023-09-06T11:32:04.648Z,26496
2023-09-06T11:33:28.053Z,20435
2023-09-06T11:34:50.478Z,16462
2023-09-06T11:36:13.883Z,13160
2023-09-06T11:37:37.292Z,18067
2023-09-06T11:39:00.705Z,18579
2023-09-06T11:40:24.112Z,14923
2023-09-06T11:41:47.527Z,30578
2023-09-06T11:43:10.936Z,76144
2023-09-06T11:44:34.347Z,75083
2023-09-06T11:45:57.756Z,75033
2023-09-06T11:47:21.162Z,3072
2023-09-06T11:48:44.571Z,77597
2023-09-06T11:50:07.979Z,76166
2023-09-06T11:51:31.386Z,28339
2023-09-06T11:52:53.810Z,16511
2023-09-06T11:54:17.220Z,27669
2023-09-06T11:55:40.629Z,29902
2023-09-06T11:57:04.039Z,21303
2023-09-06T11:58:27.448Z,22576
2023-09-06T11:59:50.857Z,17727
2023-09-06T12:01:14.263Z,17889
2023-09-06T12:02:37.675Z,21509
2023-09-06T12:04:01.083Z,26890
2023-09-06T12:05:24.492Z,27589
2023-09-06T12:06:47.898Z,16228
2023-09-06T12:08:11.307Z,32040
2023-09-06T12:09:34.716Z,76674
2023-09-06T12:10:57.142Z,77226
2023-09-06T12:12:20.557Z,77142
2023-09-06T12:13:43.967Z,3072
2023-09-06T12:15:07.382Z,78856
2023-09-06T12:16:30.789Z,78360
2023-09-06T12:17:54.197Z,79574
2023-09-06T12:19:17.607Z,3072
2023-09-06T12:20:41.017Z,15901
2023-09-06T12:22:04.430Z,25233
2023-09-06T12:23:27.837Z,19567
2023-09-06T12:24:51.243Z,18852
2023-09-06T12:26:14.653Z,21163
2023-09-06T12:27:38.064Z,29771
2023-09-06T12:29:00.490Z,35052
2023-09-06T12:30:23.900Z,76874
2023-09-06T12:31:47.309Z,78756
2023-09-06T12:33:10.719Z,33990
2023-09-06T12:34:34.110Z,17614
2023-09-06T12:35:57.541Z,24793
2023-09-06T12:37:20.947Z,78591
2023-09-06T12:38:44.357Z,77875
2023-09-06T12:40:07.767Z,75631
2023-09-06T12:41:31.177Z,76723
2023-09-06T12:42:54.585Z,80653
2023-09-06T12:44:17.995Z,79847
2023-09-06T12:45:41.405Z,76831
2023-09-06T12:47:03.831Z,16778
2023-09-06T12:48:27.241Z,14467
2023-09-06T12:49:50.651Z,15834
2023-09-06T12:51:14.062Z,3072
2023-09-06T12:52:37.470Z,22962
2023-09-06T12:54:00.880Z,28661
2023-09-06T12:55:24.288Z,32849
2023-09-06T12:56:47.698Z,74156
2023-09-06T12:58:11.109Z,3072
2023-09-06T12:59:34.519Z,82131
2023-09-06T13:00:57.925Z,80890
2023-09-06T13:02:21.335Z,32467
2023-09-06T13:03:44.746Z,16688
2023-09-06T13:05:07.168Z,30297
2023-09-06T13:06:30.579Z,80584
2023-09-06T13:07:53.985Z,80915
2023-09-06T13:09:17.395Z,77080
2023-09-06T13:10:40.805Z,75523
2023-09-06T13:12:04.216Z,78654
2023-09-06T13:13:27.624Z,24246
2023-09-06T13:14:51.030Z,22099
2023-09-06T13:16:14.441Z,16787
2023-09-06T13:17:37.848Z,15692
2023-09-06T13:19:01.258Z,13921
2023-09-06T13:20:24.669Z,21274
2023-09-06T13:21:48.079Z,28820
2023-09-06T13:23:10.506Z,28524
2023-09-06T13:24:33.912Z,74631
2023-09-06T13:25:57.322Z,79782
2023-09-06T13:27:20.733Z,82541
2023-09-06T13:28:44.143Z,83326
2023-09-06T13:30:07.550Z,83514
2023-09-06T13:31:30.960Z,82643
2023-09-06T13:32:54.370Z,39114
2023-09-06T13:34:17.779Z,18159
2023-09-06T13:35:41.189Z,25552
2023-09-06T13:37:04.599Z,76112
2023-09-06T13:38:28.010Z,76298
2023-09-06T13:39:51.417Z,25632
2023-09-06T13:41:13.843Z,21207
2023-09-06T13:42:37.254Z,20587
2023-09-06T13:44:00.664Z,25422
2023-09-06T13:45:24.071Z,3072
2023-09-06T13:46:47.481Z,76816
2023-09-06T13:48:10.892Z,38660
2023-09-06T13:49:34.302Z,17601
2023-09-06T13:50:57.713Z,26786
2023-09-06T13:52:21.131Z,78243
2023-09-06T13:53:44.541Z,81210
2023-09-06T13:55:07.957Z,81846
2023-09-06T13:56:31.368Z,80350
2023-09-06T13:57:54.778Z,80614
2023-09-06T13:59:17.205Z,82258
2023-09-06T14:00:40.615Z,82990
2023-09-06T14:02:04.026Z,80212
2023-09-06T14:03:27.436Z,16751
2023-09-06T14:04:50.845Z,13946
2023-09-06T14:06:14.255Z,16869
2023-09-06T14:07:37.665Z,17724
2023-09-06T14:09:01.076Z,24705
2023-09-06T14:10:24.486Z,32248
2023-09-06T14:11:47.880Z,73736
2023-09-06T14:13:11.307Z,78437
2023-09-06T14:14:34.718Z,81533
2023-09-06T14:15:58.129Z,82025
2023-09-06T14:17:20.556Z,3072
2023-09-06T14:18:43.966Z,35340
2023-09-06T14:20:07.376Z,19254
2023-09-06T14:21:30.788Z,31133
2023-09-06T14:22:54.182Z,84200
2023-09-06T14:24:17.615Z,84392
2023-09-06T14:25:41.025Z,82142
2023-09-06T14:27:04.442Z,3072
2023-09-06T14:28:27.849Z,14932
2023-09-06T14:29:51.259Z,13080
2023-09-06T14:31:14.670Z,18149
2023-09-06T14:32:38.080Z,17022
2023-09-06T14:34:01.497Z,16107
2023-09-06T14:35:23.923Z,16105
2023-09-06T14:36:47.332Z,25397
2023-09-06T14:38:10.742Z,82661
2023-09-06T14:39:34.152Z,82310
2023-09-06T14:40:57.563Z,81788
2023-09-06T14:42:20.971Z,81342
2023-09-06T14:43:44.382Z,82222
2023-09-06T14:45:07.793Z,81634
2023-09-06T14:46:31.209Z,74512
2023-09-06T14:47:54.626Z,3072
2023-09-06T14:49:18.037Z,17542
2023-09-06T14:50:41.447Z,24561
2023-09-06T14:52:04.858Z,18913
2023-09-06T14:53:27.291Z,3072
2023-09-06T14:54:50.701Z,18259
2023-09-06T14:56:14.112Z,20102
2023-09-06T14:57:37.523Z,3072
2023-09-06T14:59:00.933Z,76949
2023-09-06T15:00:24.344Z,35179
2023-09-06T15:01:47.752Z,17350
2023-09-06T15:03:11.158Z,24356
2023-09-06T15:04:34.569Z,76037
2023-09-06T15:05:57.968Z,77866
2023-09-06T15:07:21.390Z,76384
2023-09-06T15:08:44.806Z,77661
2023-09-06T15:10:08.217Z,78975
2023-09-06T15:11:30.643Z,77988
2023-09-06T15:12:54.054Z,19442
2023-09-06T15:14:17.464Z,10618
2023-09-06T15:15:40.875Z,13045
2023-09-06T15:17:04.286Z,14364
2023-09-06T15:18:27.696Z,21263
2023-09-06T15:19:51.106Z,28844
2023-09-06T15:21:14.517Z,74160
2023-09-06T15:22:37.927Z,78323
2023-09-06T15:24:01.337Z,80698
2023-09-06T15:25:24.748Z,79037
2023-09-06T15:26:48.154Z,3072
2023-09-06T15:28:11.565Z,14798
2023-09-06T15:29:34.000Z,21776
2023-09-06T15:30:57.411Z,3072
2023-09-06T15:32:20.821Z,76888
2023-09-06T15:33:44.231Z,6102
2023-09-06T15:35:07.639Z,2197
2023-09-06T15:36:31.046Z,2159
2023-09-06T15:37:54.456Z,2134
2023-09-06T15:39:17.862Z,2098
2023-09-06T15:40:41.272Z,2047
2023-09-06T15:42:04.680Z,2007
2023-09-06T15:43:28.090Z,1970
2023-09-06T15:44:51.495Z,1941
2023-09-06T15:46:14.905Z,1913
2023-09-06T15:47:37.331Z,3072
2023-09-06T15:49:00.741Z,1854
2023-09-06T15:50:24.150Z,1816
2023-09-06T15:51:47.559Z,1784
2023-09-06T15:53:10.969Z,1760
2023-09-06T15:54:34.378Z,1734
2023-09-06T15:55:56.807Z,1710
2023-09-06T15:57:20.214Z,1689
2023-09-06T15:58:43.629Z,1671
2023-09-06T16:00:07.038Z,1654
2023-09-06T16:01:30.447Z,1635
2023-09-06T16:02:53.863Z,1614
2023-09-06T16:04:17.272Z,1595
2023-09-06T16:05:40.681Z,1569
2023-09-06T16:07:04.088Z,1559
2023-09-06T16:08:27.497Z,3072
2023-09-06T16:09:50.906Z,1528
2023-09-06T16:11:14.326Z,1512
2023-09-06T16:12:37.733Z,1496
2023-09-06T16:14:00.154Z,1484
2023-09-06T16:15:23.563Z,1472
2023-09-06T16:16:46.968Z,1457
2023-09-06T16:18:10.375Z,1438
2023-09-06T16:19:33.785Z,1421
2023-09-06T16:20:57.191Z,1406
2023-09-06T16:22:20.576Z,1387
2023-09-06T16:23:44.009Z,1373
2023-09-06T16:25:07.415Z,1357
2023-09-06T16:26:30.822Z,1343
2023-09-06T16:27:54.230Z,1322
2023-09-06T16:29:17.639Z,1308
2023-09-06T16:30:41.048Z,1290
2023-09-06T16:32:03.473Z,1272
2023-09-06T16:33:26.885Z,1254
2023-09-06T16:34:50.294Z,1236
2023-09-06T16:36:13.708Z,3072
2023-09-06T16:37:37.117Z,1200
2023-09-06T16:39:00.513Z,1179
2023-09-06T16:40:23.934Z,1162
2023-09-06T16:41:47.343Z,1142
2023-09-06T16:43:10.748Z,1122
2023-09-06T16:44:34.155Z,1103
2023-09-06T16:45:57.564Z,1082
2023-09-06T16:47:20.974Z,1057
2023-09-06T16:48:44.381Z,1032
2023-09-06T16:50:06.804Z,1004
2023-09-06T16:51:30.214Z,977
2023-09-06T16:52:53.621Z,954
2023-09-06T16:54:17.030Z,929
2023-09-06T16:55:40.445Z,908
2023-09-06T16:57:03.855Z,3072
2023-09-06T16:58:27.268Z,849
2023-09-06T16:59:50.677Z,822
2023-09-06T17:01:14.086Z,797
2023-09-06T17:02:37.495Z,768
2023-09-06T17:04:00.904Z,746
2023-09-06T17:05:24.320Z,716
2023-09-06T17:06:47.729Z,692
2023-09-06T17:08:10.155Z,665
2023-09-06T17:09:33.561Z,639
2023-09-06T17:10:56.968Z,610
2023-09-06T17:12:20.378Z,583
2023-09-06T17:13:43.784Z,558
2023-09-06T17:15:07.193Z,3072
2023-09-06T17:16:30.600Z,503
2023-09-06T17:17:54.009Z,480
2023-09-06T17:19:17.414Z,463
2023-09-06T17:20:40.832Z,442
2023-09-06T17:22:04.238Z,418
2023-09-06T17:23:27.647Z,398
2023-09-06T17:24:51.062Z,375
2023-09-06T17:26:13.487Z,347
2023-09-06T17:27:36.894Z,329
2023-09-06T17:29:00.304Z,312
2023-09-06T17:30:23.713Z,283
2023-09-06T17:31:47.122Z,264
2023-09-06T17:33:10.528Z,245
2023-09-06T17:34:33.935Z,226
2023-09-06T17:35:57.352Z,203
2023-09-06T17:37:20.761Z,3072
2023-09-06T17:38:44.148Z,165
2023-09-06T17:40:07.576Z,149
2023-09-06T17:41:30.984Z,129
2023-09-06T17:42:54.393Z,124
2023-09-06T17:44:16.818Z,108
2023-09-06T17:45:40.225Z,92
2023-09-06T17:47:03.629Z,83
2023-09-06T17:48:27.038Z,73
2023-09-06T17:49:50.444Z,60
2023-09-06T17:51:13.853Z,51
2023-09-06T17:52:37.261Z,48
2023-09-06T17:54:00.668Z,34
2023-09-06T17:55:24.074Z,32
2023-09-06T17:56:47.483Z,29
2023-09-06T17:58:10.892Z,21
2023-09-06T17:59:34.301Z,16
2023-09-06T18:00:57.710Z,15
2023-09-06T18:02:20.135Z,12
2023-09-06T18:03:43.544Z,7
2023-09-06T18:05:06.953Z,8
2023-09-06T18:06:30.362Z,2
2023-09-06T18:07:53.769Z,5
2023-09-06T18:09:17.176Z,3
2023-09-06T18:10:40.583Z,1
2023-09-06T18:12:04.035Z,0
2023-09-06T18:13:27.444Z,1
2023-09-06T18:14:50.848Z,2
2023-09-06T18:16:14.258Z,2
2023-09-06T18:17:37.663Z,1
2023-09-06T18:19:01.113Z,0
2023-09-06T18:20:23.581Z,0
2023-09-06T18:21:47.031Z,0
2023-09-06T18:23:10.480Z,0
2023-09-06T18:24:33.930Z,0
2023-09-06T18:25:57.380Z,0
2023-09-06T18:27:20.828Z,0
2023-09-06T18:28:44.278Z,0
2023-09-06T18:30:07.730Z,0
2023-09-06T18:31:31.182Z,0
2023-09-06T18:32:54.634Z,0
2023-09-06T18:34:18.086Z,0
2023-09-06T18:35:41.533Z,0
2023-09-06T18:37:04.981Z,0
2023-09-06T18:38:27.447Z,0
2023-09-06T18:39:50.897Z,0
2023-09-06T18:41:14.347Z,0
2023-09-06T18:42:37.797Z,0
2023-09-06T18:44:01.249Z,0
2023-09-06T18:45:24.698Z,0
2023-09-06T18:46:48.148Z,0
2023-09-06T18:48:11.603Z,0
2023-09-06T18:49:35.054Z,0
2023-09-06T18:50:58.504Z,0
2023-09-06T18:52:21.953Z,0
2023-09-06T18:53:45.405Z,0
2023-09-06T18:55:08.853Z,0
2023-09-06T18:56:31.321Z,0
2023-09-06T18:57:54.773Z,0
2023-09-06T18:59:18.225Z,0
2023-09-06T19:00:41.673Z,0
2023-09-06T19:02:05.120Z,0
2023-09-06T19:03:28.574Z,0
2023-09-06T19:04:52.022Z,0
2023-09-06T19:06:15.472Z,0
2023-09-06T19:07:38.924Z,0
2023-09-06T19:09:02.373Z,0
2023-09-06T19:10:25.823Z,0
2023-09-06T19:11:49.273Z,0
2023-09-06T19:13:12.720Z,0
2023-09-06T19:14:35.186Z,0
2023-09-06T19:15:58.638Z,0
2023-09-06T19:17:22.086Z,0
2023-09-06T19:18:45.536Z,0
2023-09-06T19:20:08.987Z,0
2023-09-06T19:21:32.435Z,0
2023-09-06T19:22:55.885Z,0
2023-09-06T19:24:19.341Z,0
2023-09-06T19:25:42.790Z,0
2023-09-06T19:27:06.241Z,0
2023-09-06T19:28:29.690Z,0
2023-09-06T19:29:53.142Z,0
2023-09-06T19:31:16.594Z,0
2023-09-06T19:32:39.062Z,0
2023-09-06T19:34:02.513Z,0
2023-09-06T19:35:25.968Z,0
2023-09-06T19:36:49.416Z,0
2023-09-06T19:38:12.863Z,0
2023-09-06T19:39:36.313Z,0
2023-09-06T19:42:23.210Z,0
2023-09-06T19:43:46.660Z,0
2023-09-06T19:45:10.108Z,0
2023-09-06T19:46:33.555Z,0
2023-09-06T19:47:57.004Z,0
2023-09-06T19:49:20.454Z,0
2023-09-06T19:50:42.919Z,0
2023-09-06T19:52:06.368Z,0
2023-09-06T19:53:29.818Z,0
2023-09-06T19:54:53.267Z,0
2023-09-06T19:56:16.717Z,0
2023-09-06T19:57:40.166Z,0
2023-09-06T19:59:03.615Z,0
2023-09-06T20:00:27.063Z,0
2023-09-06T20:01:50.510Z,0
2023-09-06T20:03:13.959Z,0
2023-09-06T20:04:37.407Z,0
2023-09-06T20:06:00.850Z,0
2023-09-06T20:07:24.304Z,0
2023-09-06T20:08:46.769Z,0
2023-09-06T20:10:10.218Z,0
2023-09-06T20:11:33.668Z,0
2023-09-06T20:12:57.115Z,0
2023-09-06T20:14:20.564Z,0
2023-09-06T20:15:44.013Z,0
2023-09-06T20:17:07.463Z,0
2023-09-06T20:18:30.912Z,0
2023-09-06T20:19:54.360Z,0
2023-09-06T20:21:17.809Z,0
2023-09-06T20:22:41.259Z,0
2023-09-06T20:24:04.708Z,0
2023-09-06T20:25:28.134Z,0
2023-09-06T20:26:50.626Z,0
2023-09-06T20:28:14.074Z,0
2023-09-06T20:29:37.523Z,0
2023-09-06T20:31:00.973Z,0
2023-09-06T20:32:24.422Z,0
2023-09-06T20:33:47.874Z,0
2023-09-06T20:35:10.344Z,0
2023-09-06T20:36:33.793Z,0
2023-09-06T20:37:57.243Z,0
2023-09-06T20:39:20.690Z,0
2023-09-06T20:40:44.139Z,0
2023-09-06T20:42:07.589Z,0
2023-09-06T20:43:31.038Z,0
2023-09-06T20:44:54.487Z,0
2023-09-06T20:46:17.937Z,0
2023-09-06T20:47:41.386Z,0
2023-09-06T20:49:04.835Z,0
2023-09-06T20:50:28.284Z,0
2023-09-06T20:51:51.737Z,0
2023-09-06T20:53:14.202Z,0
2023-09-06T20:54:37.652Z,0
2023-09-06T20:56:01.099Z,0
2023-09-06T20:57:24.548Z,0
2023-09-06T20:58:47.996Z,0
2023-09-06T21:00:11.445Z,0
2023-09-06T21:01:34.894Z,0
2023-09-06T21:02:58.343Z,0
2023-09-06T21:04:21.786Z,0
2023-09-06T21:05:45.240Z,0
2023-09-06T21:07:08.689Z,0
2023-09-06T21:08:32.138Z,0
2023-09-06T21:09:55.588Z,0
2023-09-06T21:11:18.054Z,0
2023-09-06T21:12:41.503Z,0
2023-09-06T21:14:04.952Z,0
2023-09-06T21:15:28.401Z,0
2023-09-06T21:16:51.850Z,0
2023-09-06T21:18:15.299Z,0
2023-09-06T21:19:38.749Z,0
2023-09-06T21:21:02.198Z,0
2023-09-06T21:22:25.647Z,0
2023-09-06T21:23:49.096Z,0
2023-09-06T21:25:12.546Z,0
2023-09-06T21:26:35.995Z,0
2023-09-06T21:27:59.444Z,0
2023-09-06T21:29:21.909Z,0
2023-09-06T21:30:45.358Z,0
2023-09-06T21:32:08.808Z,0
2023-09-06T21:33:32.257Z,0
2023-09-06T21:34:55.706Z,0
2023-09-06T21:36:19.154Z,0
2023-09-06T21:37:42.603Z,0
2023-09-06T21:53:05.897Z,0
2023-09-06T22:08:29.192Z,0
2023-09-06T22:23:52.485Z,0
2023-09-06T22:39:15.781Z,0
2023-09-06T22:54:39.075Z,0
2023-09-06T23:10:02.369Z,0
2023-09-06T23:25:24.680Z,0
2023-09-06T23:40:47.975Z,0
2023-09-06T23:56:11.269Z,0
